ADDS METAR Data

Data at: 1605 UTC 20 May 2018

METAR for:KJFK (New York/Kennedy Int, NY, US)
Text:KJFK 201551Z 23016KT 10SM FEW020 BKN038 BKN110 BKN140 BKN250 26/21 A2995 RMK AO2 SLP140 T02560206 $
Temperature: 25.6°C ( 78°F)
Dewpoint: 20.6°C ( 69°F) [RH = 74%]
Pressure (altimeter):29.95 inches Hg (1014.3 mb) [Sea level pressure: 1014.0 mb]
Winds:from the SW (230 degrees) at 18 MPH (16 knots; 8.2 m/s)
Visibility:10 or more sm (16+ km)
Ceiling:3800 feet AGL
Clouds: few clouds at 2000 feet AGL, broken clouds at 3800 feet AGL, broken clouds at 11000 feet AGL, broken clouds at 14000 feet AGL
QC Flag:SOME DATA ABOVE MAY BE INACCURATE!!!"$" is an indication the sensor requires maintenance.